sensor_id;sensor_type;location;lat;lon;timestamp;P1;durP1;ratioP1;P2;durP2;ratioP2
55815;SDS011;41744;52.404;16.942;2023-03-01T00:02:20;152.00;;;46.50;;
55815;SDS011;41744;52.404;16.942;2023-03-01T00:04:46;176.70;;;48.63;;
55815;SDS011;41744;52.404;16.942;2023-03-01T00:07:12;188.90;;;50.63;;
55815;SDS011;41744;52.404;16.942;2023-03-01T00:09:38;199.00;;;51.40;;
55815;SDS011;41744;52.404;16.942;2023-03-01T00:12:05;192.47;;;52.47;;
55815;SDS011;41744;52.404;16.942;2023-03-01T00:14:31;208.20;;;51.77;;
55815;SDS011;41744;52.404;16.942;2023-03-01T00:16:58;182.37;;;54.87;;
55815;SDS011;41744;52.404;16.942;2023-03-01T00:19:24;210.83;;;54.47;;
55815;SDS011;41744;52.404;16.942;2023-03-01T00:21:50;227.60;;;57.57;;
55815;SDS011;41744;52.404;16.942;2023-03-01T00:24:16;203.77;;;57.50;;
55815;SDS011;41744;52.404;16.942;2023-03-01T00:26:43;203.40;;;54.80;;
55815;SDS011;41744;52.404;16.942;2023-03-01T00:29:09;227.57;;;58.53;;
55815;SDS011;41744;52.404;16.942;2023-03-01T00:31:35;216.90;;;57.90;;
55815;SDS011;41744;52.404;16.942;2023-03-01T00:34:04;234.57;;;61.10;;
55815;SDS011;41744;52.404;16.942;2023-03-01T00:36:31;212.90;;;57.40;;
55815;SDS011;41744;52.404;16.942;2023-03-01T00:38:58;208.27;;;57.83;;
55815;SDS011;41744;52.404;16.942;2023-03-01T00:41:24;216.13;;;56.77;;
55815;SDS011;41744;52.404;16.942;2023-03-01T00:43:53;216.53;;;57.33;;
55815;SDS011;41744;52.404;16.942;2023-03-01T00:46:21;231.70;;;58.50;;
55815;SDS011;41744;52.404;16.942;2023-03-01T00:48:47;225.00;;;62.50;;
55815;SDS011;41744;52.404;16.942;2023-03-01T00:51:20;214.50;;;58.60;;
55815;SDS011;41744;52.404;16.942;2023-03-01T00:53:47;214.73;;;56.67;;
55815;SDS011;41744;52.404;16.942;2023-03-01T00:56:13;205.67;;;58.57;;
55815;SDS011;41744;52.404;16.942;2023-03-01T00:58:40;239.73;;;58.60;;
55815;SDS011;41744;52.404;16.942;2023-03-01T01:01:13;240.70;;;59.83;;
55815;SDS011;41744;52.404;16.942;2023-03-01T01:03:43;223.30;;;59.07;;
55815;SDS011;41744;52.404;16.942;2023-03-01T01:06:16;242.90;;;60.87;;
55815;SDS011;41744;52.404;16.942;2023-03-01T01:08:43;219.03;;;57.73;;
55815;SDS011;41744;52.404;16.942;2023-03-01T01:11:09;219.50;;;58.07;;
55815;SDS011;41744;52.404;16.942;2023-03-01T01:13:36;206.93;;;54.00;;
55815;SDS011;41744;52.404;16.942;2023-03-01T01:16:02;214.90;;;57.60;;
55815;SDS011;41744;52.404;16.942;2023-03-01T01:18:28;205.50;;;57.27;;
55815;SDS011;41744;52.404;16.942;2023-03-01T01:20:55;196.90;;;56.57;;
55815;SDS011;41744;52.404;16.942;2023-03-01T01:23:21;226.40;;;56.07;;
55815;SDS011;41744;52.404;16.942;2023-03-01T01:25:47;197.83;;;56.37;;
55815;SDS011;41744;52.404;16.942;2023-03-01T01:28:13;207.43;;;55.50;;
55815;SDS011;41744;52.404;16.942;2023-03-01T01:30:39;192.73;;;55.37;;
55815;SDS011;41744;52.404;16.942;2023-03-01T01:33:05;199.10;;;54.90;;
55815;SDS011;41744;52.404;16.942;2023-03-01T01:35:31;222.73;;;57.80;;
55815;SDS011;41744;52.404;16.942;2023-03-01T01:37:57;202.63;;;56.47;;
55815;SDS011;41744;52.404;16.942;2023-03-01T01:40:23;210.13;;;54.03;;
55815;SDS011;41744;52.404;16.942;2023-03-01T01:42:49;214.73;;;58.13;;
55815;SDS011;41744;52.404;16.942;2023-03-01T01:47:54;209.83;;;57.17;;
55815;SDS011;41744;52.404;16.942;2023-03-01T01:50:21;210.57;;;54.00;;
55815;SDS011;41744;52.404;16.942;2023-03-01T01:52:48;199.40;;;54.63;;
55815;SDS011;41744;52.404;16.942;2023-03-01T01:55:16;217.97;;;58.13;;
55815;SDS011;41744;52.404;16.942;2023-03-01T01:57:46;209.60;;;56.43;;
55815;SDS011;41744;52.404;16.942;2023-03-01T02:00:14;224.50;;;56.83;;
55815;SDS011;41744;52.404;16.942;2023-03-01T02:02:41;206.27;;;59.13;;
55815;SDS011;41744;52.404;16.942;2023-03-01T02:07:43;199.30;;;55.87;;
55815;SDS011;41744;52.404;16.942;2023-03-01T02:10:09;197.40;;;56.47;;
55815;SDS011;41744;52.404;16.942;2023-03-01T02:12:36;213.60;;;56.57;;
55815;SDS011;41744;52.404;16.942;2023-03-01T02:15:02;217.00;;;54.30;;
55815;SDS011;41744;52.404;16.942;2023-03-01T02:17:29;209.43;;;57.67;;
55815;SDS011;41744;52.404;16.942;2023-03-01T02:22:32;208.87;;;57.23;;
55815;SDS011;41744;52.404;16.942;2023-03-01T02:27:42;215.63;;;56.80;;
55815;SDS011;41744;52.404;16.942;2023-03-01T02:30:09;205.80;;;51.27;;
55815;SDS011;41744;52.404;16.942;2023-03-01T02:32:38;203.73;;;54.17;;
55815;SDS011;41744;52.404;16.942;2023-03-01T02:35:06;194.63;;;52.30;;
55815;SDS011;41744;52.404;16.942;2023-03-01T02:37:33;191.33;;;50.57;;
55815;SDS011;41744;52.404;16.942;2023-03-01T02:40:02;187.13;;;51.27;;
55815;SDS011;41744;52.404;16.942;2023-03-01T02:42:34;200.73;;;50.23;;
55815;SDS011;41744;52.404;16.942;2023-03-01T02:45:01;179.00;;;49.63;;
55815;SDS011;41744;52.404;16.942;2023-03-01T02:47:27;176.30;;;50.93;;
55815;SDS011;41744;52.404;16.942;2023-03-01T02:49:53;196.43;;;49.30;;
55815;SDS011;41744;52.404;16.942;2023-03-01T02:54:50;176.00;;;48.13;;
55815;SDS011;41744;52.404;16.942;2023-03-01T02:57:18;167.27;;;45.40;;
55815;SDS011;41744;52.404;16.942;2023-03-01T02:59:45;178.87;;;47.63;;
55815;SDS011;41744;52.404;16.942;2023-03-01T03:02:19;189.87;;;47.07;;
55815;SDS011;41744;52.404;16.942;2023-03-01T03:05:01;172.83;;;43.67;;
55815;SDS011;41744;52.404;16.942;2023-03-01T03:07:27;165.03;;;44.40;;
55815;SDS011;41744;52.404;16.942;2023-03-01T03:09:53;154.50;;;44.30;;
55815;SDS011;41744;52.404;16.942;2023-03-01T03:12:19;162.00;;;43.50;;
55815;SDS011;41744;52.404;16.942;2023-03-01T03:14:45;161.80;;;44.67;;
55815;SDS011;41744;52.404;16.942;2023-03-01T03:17:11;171.97;;;45.17;;
55815;SDS011;41744;52.404;16.942;2023-03-01T03:19:37;168.87;;;45.93;;
55815;SDS011;41744;52.404;16.942;2023-03-01T03:22:03;162.33;;;44.57;;
55815;SDS011;41744;52.404;16.942;2023-03-01T03:24:29;160.73;;;45.80;;
55815;SDS011;41744;52.404;16.942;2023-03-01T03:27:03;160.57;;;45.00;;
55815;SDS011;41744;52.404;16.942;2023-03-01T03:29:29;151.90;;;43.70;;
55815;SDS011;41744;52.404;16.942;2023-03-01T03:31:55;153.57;;;43.30;;
55815;SDS011;41744;52.404;16.942;2023-03-01T03:34:21;174.20;;;44.67;;
55815;SDS011;41744;52.404;16.942;2023-03-01T03:36:47;174.40;;;45.63;;
55815;SDS011;41744;52.404;16.942;2023-03-01T03:39:13;171.73;;;44.10;;
55815;SDS011;41744;52.404;16.942;2023-03-01T03:41:39;147.97;;;41.73;;
55815;SDS011;41744;52.404;16.942;2023-03-01T03:44:05;157.20;;;43.83;;
55815;SDS011;41744;52.404;16.942;2023-03-01T03:46:31;166.70;;;45.30;;
55815;SDS011;41744;52.404;16.942;2023-03-01T03:48:57;171.83;;;45.57;;
55815;SDS011;41744;52.404;16.942;2023-03-01T03:51:23;179.73;;;46.47;;
55815;SDS011;41744;52.404;16.942;2023-03-01T03:53:49;175.50;;;45.43;;
55815;SDS011;41744;52.404;16.942;2023-03-01T03:56:15;176.53;;;44.77;;
55815;SDS011;41744;52.404;16.942;2023-03-01T03:58:42;178.17;;;46.47;;
55815;SDS011;41744;52.404;16.942;2023-03-01T04:01:08;165.17;;;45.90;;
55815;SDS011;41744;52.404;16.942;2023-03-01T04:03:34;163.17;;;44.53;;
55815;SDS011;41744;52.404;16.942;2023-03-01T04:06:00;162.27;;;42.90;;
55815;SDS011;41744;52.404;16.942;2023-03-01T04:08:27;163.97;;;44.53;;
55815;SDS011;41744;52.404;16.942;2023-03-01T04:10:57;166.37;;;44.37;;
55815;SDS011;41744;52.404;16.942;2023-03-01T04:13:23;160.00;;;42.57;;
55815;SDS011;41744;52.404;16.942;2023-03-01T04:15:53;158.93;;;41.27;;
55815;SDS011;41744;52.404;16.942;2023-03-01T04:18:20;157.03;;;44.17;;
55815;SDS011;41744;52.404;16.942;2023-03-01T04:20:47;159.27;;;42.87;;
55815;SDS011;41744;52.404;16.942;2023-03-01T04:25:41;158.93;;;43.10;;
55815;SDS011;41744;52.404;16.942;2023-03-01T04:28:08;142.93;;;41.30;;
55815;SDS011;41744;52.404;16.942;2023-03-01T04:30:35;142.83;;;40.97;;
55815;SDS011;41744;52.404;16.942;2023-03-01T04:33:03;155.90;;;42.33;;
55815;SDS011;41744;52.404;16.942;2023-03-01T04:35:30;160.60;;;41.33;;
55815;SDS011;41744;52.404;16.942;2023-03-01T04:37:56;152.07;;;43.13;;
55815;SDS011;41744;52.404;16.942;2023-03-01T04:40:22;151.90;;;43.00;;
55815;SDS011;41744;52.404;16.942;2023-03-01T04:42:48;165.40;;;45.13;;
55815;SDS011;41744;52.404;16.942;2023-03-01T04:45:14;159.63;;;43.00;;
55815;SDS011;41744;52.404;16.942;2023-03-01T04:47:41;156.03;;;42.40;;
55815;SDS011;41744;52.404;16.942;2023-03-01T04:50:08;139.67;;;42.80;;
55815;SDS011;41744;52.404;16.942;2023-03-01T04:52:35;142.10;;;41.30;;
55815;SDS011;41744;52.404;16.942;2023-03-01T04:55:01;164.13;;;44.13;;
55815;SDS011;41744;52.404;16.942;2023-03-01T04:57:28;144.13;;;43.07;;
55815;SDS011;41744;52.404;16.942;2023-03-01T04:59:54;142.47;;;42.20;;
55815;SDS011;41744;52.404;16.942;2023-03-01T05:02:20;145.37;;;41.93;;
55815;SDS011;41744;52.404;16.942;2023-03-01T05:04:46;148.80;;;40.40;;
55815;SDS011;41744;52.404;16.942;2023-03-01T05:07:12;144.30;;;41.33;;
55815;SDS011;41744;52.404;16.942;2023-03-01T05:09:47;140.97;;;39.73;;
55815;SDS011;41744;52.404;16.942;2023-03-01T05:12:14;144.43;;;43.27;;
55815;SDS011;41744;52.404;16.942;2023-03-01T05:14:40;143.17;;;41.53;;
55815;SDS011;41744;52.404;16.942;2023-03-01T05:17:06;151.80;;;41.67;;
55815;SDS011;41744;52.404;16.942;2023-03-01T05:19:32;145.27;;;42.07;;
55815;SDS011;41744;52.404;16.942;2023-03-01T05:21:59;144.67;;;41.27;;
55815;SDS011;41744;52.404;16.942;2023-03-01T05:24:32;152.00;;;42.37;;
55815;SDS011;41744;52.404;16.942;2023-03-01T05:26:58;138.47;;;41.20;;
55815;SDS011;41744;52.404;16.942;2023-03-01T05:29:25;141.07;;;40.40;;
55815;SDS011;41744;52.404;16.942;2023-03-01T05:31:55;149.43;;;41.33;;
55815;SDS011;41744;52.404;16.942;2023-03-01T05:34:34;152.10;;;42.07;;
55815;SDS011;41744;52.404;16.942;2023-03-01T05:37:01;139.27;;;41.53;;
55815;SDS011;41744;52.404;16.942;2023-03-01T05:39:28;139.80;;;38.80;;
55815;SDS011;41744;52.404;16.942;2023-03-01T05:41:55;155.30;;;40.43;;
55815;SDS011;41744;52.404;16.942;2023-03-01T05:44:21;137.73;;;40.27;;
55815;SDS011;41744;52.404;16.942;2023-03-01T05:46:48;156.97;;;41.67;;
55815;SDS011;41744;52.404;16.942;2023-03-01T05:49:14;133.47;;;41.30;;
55815;SDS011;41744;52.404;16.942;2023-03-01T05:51:41;145.20;;;41.03;;
55815;SDS011;41744;52.404;16.942;2023-03-01T05:54:07;150.30;;;42.13;;
55815;SDS011;41744;52.404;16.942;2023-03-01T05:56:34;153.07;;;41.47;;
55815;SDS011;41744;52.404;16.942;2023-03-01T05:59:00;142.57;;;39.33;;
55815;SDS011;41744;52.404;16.942;2023-03-01T06:01:26;139.07;;;40.70;;
55815;SDS011;41744;52.404;16.942;2023-03-01T06:03:52;146.23;;;39.67;;
55815;SDS011;41744;52.404;16.942;2023-03-01T06:06:18;144.47;;;39.23;;
55815;SDS011;41744;52.404;16.942;2023-03-01T06:08:44;159.63;;;40.83;;
55815;SDS011;41744;52.404;16.942;2023-03-01T06:11:11;143.27;;;38.97;;
55815;SDS011;41744;52.404;16.942;2023-03-01T06:13:37;147.03;;;40.83;;
55815;SDS011;41744;52.404;16.942;2023-03-01T06:16:06;140.67;;;40.43;;
55815;SDS011;41744;52.404;16.942;2023-03-01T06:18:32;140.20;;;41.50;;
55815;SDS011;41744;52.404;16.942;2023-03-01T06:20:58;146.97;;;41.70;;
55815;SDS011;41744;52.404;16.942;2023-03-01T06:23:25;137.63;;;40.77;;
55815;SDS011;41744;52.404;16.942;2023-03-01T06:25:51;139.93;;;40.17;;
55815;SDS011;41744;52.404;16.942;2023-03-01T06:28:17;152.93;;;40.50;;
55815;SDS011;41744;52.404;16.942;2023-03-01T06:30:43;142.53;;;40.90;;
55815;SDS011;41744;52.404;16.942;2023-03-01T06:33:09;138.03;;;43.10;;
55815;SDS011;41744;52.404;16.942;2023-03-01T06:35:35;139.10;;;41.43;;
55815;SDS011;41744;52.404;16.942;2023-03-01T06:38:02;149.40;;;42.70;;
55815;SDS011;41744;52.404;16.942;2023-03-01T06:40:29;126.10;;;41.20;;
55815;SDS011;41744;52.404;16.942;2023-03-01T06:42:56;133.03;;;40.87;;
55815;SDS011;41744;52.404;16.942;2023-03-01T06:45:22;127.37;;;41.40;;
55815;SDS011;41744;52.404;16.942;2023-03-01T06:47:49;131.70;;;40.10;;
55815;SDS011;41744;52.404;16.942;2023-03-01T06:50:15;130.83;;;42.27;;
55815;SDS011;41744;52.404;16.942;2023-03-01T06:52:42;132.97;;;41.77;;
55815;SDS011;41744;52.404;16.942;2023-03-01T06:55:09;136.93;;;42.30;;
55815;SDS011;41744;52.404;16.942;2023-03-01T06:57:35;145.00;;;43.33;;
55815;SDS011;41744;52.404;16.942;2023-03-01T07:00:03;127.70;;;41.70;;
55815;SDS011;41744;52.404;16.942;2023-03-01T07:02:29;133.67;;;42.10;;
55815;SDS011;41744;52.404;16.942;2023-03-01T07:04:55;137.23;;;42.80;;
55815;SDS011;41744;52.404;16.942;2023-03-01T07:07:21;127.00;;;40.47;;
55815;SDS011;41744;52.404;16.942;2023-03-01T07:09:48;133.97;;;41.63;;
55815;SDS011;41744;52.404;16.942;2023-03-01T07:12:14;152.47;;;44.20;;
55815;SDS011;41744;52.404;16.942;2023-03-01T07:14:40;129.87;;;43.93;;
55815;SDS011;41744;52.404;16.942;2023-03-01T07:17:06;138.77;;;44.70;;
55815;SDS011;41744;52.404;16.942;2023-03-01T07:19:32;139.87;;;44.80;;
55815;SDS011;41744;52.404;16.942;2023-03-01T07:21:58;144.93;;;44.73;;
55815;SDS011;41744;52.404;16.942;2023-03-01T07:24:24;141.37;;;43.10;;
55815;SDS011;41744;52.404;16.942;2023-03-01T07:26:51;131.73;;;43.87;;
55815;SDS011;41744;52.404;16.942;2023-03-01T07:29:18;134.07;;;42.30;;
55815;SDS011;41744;52.404;16.942;2023-03-01T07:31:44;127.93;;;40.13;;
55815;SDS011;41744;52.404;16.942;2023-03-01T07:34:10;130.40;;;41.13;;
55815;SDS011;41744;52.404;16.942;2023-03-01T07:36:37;112.97;;;37.67;;
55815;SDS011;41744;52.404;16.942;2023-03-01T07:39:04;114.07;;;36.40;;
55815;SDS011;41744;52.404;16.942;2023-03-01T07:41:30;113.33;;;35.07;;
55815;SDS011;41744;52.404;16.942;2023-03-01T07:43:56;91.43;;;32.87;;
55815;SDS011;41744;52.404;16.942;2023-03-01T07:46:22;89.90;;;33.07;;
55815;SDS011;41744;52.404;16.942;2023-03-01T07:48:49;101.17;;;34.10;;
55815;SDS011;41744;52.404;16.942;2023-03-01T07:51:15;104.87;;;34.87;;
55815;SDS011;41744;52.404;16.942;2023-03-01T07:53:41;96.67;;;32.30;;
55815;SDS011;41744;52.404;16.942;2023-03-01T07:56:08;95.07;;;33.33;;
55815;SDS011;41744;52.404;16.942;2023-03-01T07:58:35;95.47;;;32.75;;
55815;SDS011;41744;52.404;16.942;2023-03-01T08:01:01;90.75;;;30.80;;
55815;SDS011;41744;52.404;16.942;2023-03-01T08:03:28;70.83;;;27.47;;
55815;SDS011;41744;52.404;16.942;2023-03-01T08:05:54;71.60;;;23.13;;
55815;SDS011;41744;52.404;16.942;2023-03-01T08:08:20;55.35;;;21.23;;
55815;SDS011;41744;52.404;16.942;2023-03-01T08:10:46;61.40;;;21.90;;
55815;SDS011;41744;52.404;16.942;2023-03-01T08:13:12;71.55;;;21.80;;
55815;SDS011;41744;52.404;16.942;2023-03-01T08:15:38;58.22;;;19.83;;
55815;SDS011;41744;52.404;16.942;2023-03-01T08:18:04;53.13;;;19.77;;
55815;SDS011;41744;52.404;16.942;2023-03-01T08:20:31;63.75;;;20.60;;
55815;SDS011;41744;52.404;16.942;2023-03-01T08:22:57;43.67;;;17.53;;
55815;SDS011;41744;52.404;16.942;2023-03-01T08:25:23;54.92;;;20.48;;
55815;SDS011;41744;52.404;16.942;2023-03-01T08:27:50;48.70;;;18.67;;
55815;SDS011;41744;52.404;16.942;2023-03-01T08:30:16;40.77;;;16.90;;
55815;SDS011;41744;52.404;16.942;2023-03-01T08:32:42;39.60;;;16.23;;
55815;SDS011;41744;52.404;16.942;2023-03-01T08:35:08;43.83;;;15.63;;
55815;SDS011;41744;52.404;16.942;2023-03-01T08:37:34;38.25;;;15.00;;
55815;SDS011;41744;52.404;16.942;2023-03-01T08:40:00;39.20;;;15.13;;
55815;SDS011;41744;52.404;16.942;2023-03-01T08:42:27;59.50;;;17.53;;
55815;SDS011;41744;52.404;16.942;2023-03-01T08:44:53;42.00;;;15.20;;
55815;SDS011;41744;52.404;16.942;2023-03-01T08:47:19;36.70;;;13.97;;
55815;SDS011;41744;52.404;16.942;2023-03-01T08:49:45;30.63;;;12.33;;
55815;SDS011;41744;52.404;16.942;2023-03-01T08:52:11;33.20;;;13.30;;
55815;SDS011;41744;52.404;16.942;2023-03-01T08:54:37;36.80;;;12.57;;
55815;SDS011;41744;52.404;16.942;2023-03-01T08:57:03;31.87;;;12.53;;
55815;SDS011;41744;52.404;16.942;2023-03-01T08:59:29;30.70;;;10.87;;
55815;SDS011;41744;52.404;16.942;2023-03-01T09:02:00;30.07;;;10.67;;
55815;SDS011;41744;52.404;16.942;2023-03-01T09:04:26;30.87;;;11.37;;
55815;SDS011;41744;52.404;16.942;2023-03-01T09:06:52;31.63;;;12.27;;
55815;SDS011;41744;52.404;16.942;2023-03-01T09:09:18;27.60;;;11.73;;
55815;SDS011;41744;52.404;16.942;2023-03-01T09:11:45;31.13;;;11.87;;
55815;SDS011;41744;52.404;16.942;2023-03-01T09:14:11;25.57;;;10.33;;
55815;SDS011;41744;52.404;16.942;2023-03-01T09:16:37;22.52;;;8.85;;
55815;SDS011;41744;52.404;16.942;2023-03-01T09:19:04;18.07;;;7.73;;
55815;SDS011;41744;52.404;16.942;2023-03-01T09:21:31;20.63;;;7.43;;
55815;SDS011;41744;52.404;16.942;2023-03-01T09:23:57;17.93;;;6.97;;
55815;SDS011;41744;52.404;16.942;2023-03-01T09:26:23;15.13;;;6.63;;
55815;SDS011;41744;52.404;16.942;2023-03-01T09:28:51;19.98;;;7.03;;
55815;SDS011;41744;52.404;16.942;2023-03-01T09:31:18;19.27;;;7.43;;
55815;SDS011;41744;52.404;16.942;2023-03-01T09:33:48;20.35;;;7.60;;
55815;SDS011;41744;52.404;16.942;2023-03-01T09:36:15;20.25;;;7.95;;
55815;SDS011;41744;52.404;16.942;2023-03-01T09:38:41;17.57;;;6.97;;
55815;SDS011;41744;52.404;16.942;2023-03-01T09:41:18;18.60;;;7.27;;
55815;SDS011;41744;52.404;16.942;2023-03-01T09:46:12;18.73;;;6.07;;
55815;SDS011;41744;52.404;16.942;2023-03-01T09:48:42;19.77;;;5.85;;
55815;SDS011;41744;52.404;16.942;2023-03-01T09:51:12;12.27;;;4.90;;
55815;SDS011;41744;52.404;16.942;2023-03-01T09:53:41;14.00;;;5.85;;
55815;SDS011;41744;52.404;16.942;2023-03-01T10:01:51;17.10;;;6.35;;
55815;SDS011;41744;52.404;16.942;2023-03-01T10:04:20;15.17;;;5.43;;
55815;SDS011;41744;52.404;16.942;2023-03-01T10:06:59;12.32;;;5.25;;
55815;SDS011;41744;52.404;16.942;2023-03-01T10:09:26;11.83;;;4.97;;
55815;SDS011;41744;52.404;16.942;2023-03-01T10:11:55;17.38;;;7.72;;
55815;SDS011;41744;52.404;16.942;2023-03-01T10:16:58;17.40;;;5.13;;
55815;SDS011;41744;52.404;16.942;2023-03-01T10:19:46;14.63;;;5.20;;
55815;SDS011;41744;52.404;16.942;2023-03-01T10:22:16;14.40;;;5.63;;
55815;SDS011;41744;52.404;16.942;2023-03-01T10:24:43;12.07;;;5.22;;
55815;SDS011;41744;52.404;16.942;2023-03-01T10:27:24;14.25;;;6.05;;
55815;SDS011;41744;52.404;16.942;2023-03-01T10:32:20;11.20;;;5.22;;
55815;SDS011;41744;52.404;16.942;2023-03-01T10:34:47;12.88;;;5.70;;
55815;SDS011;41744;52.404;16.942;2023-03-01T10:37:14;12.55;;;5.57;;
55815;SDS011;41744;52.404;16.942;2023-03-01T10:42:46;11.30;;;5.45;;
55815;SDS011;41744;52.404;16.942;2023-03-01T10:47:41;17.98;;;7.15;;
55815;SDS011;41744;52.404;16.942;2023-03-01T10:50:17;12.95;;;6.50;;
55815;SDS011;41744;52.404;16.942;2023-03-01T10:52:55;14.57;;;5.75;;
55815;SDS011;41744;52.404;16.942;2023-03-01T10:55:37;15.85;;;5.97;;
55815;SDS011;41744;52.404;16.942;2023-03-01T11:00:33;15.90;;;5.25;;
55815;SDS011;41744;52.404;16.942;2023-03-01T11:03:11;15.65;;;5.03;;
55815;SDS011;41744;52.404;16.942;2023-03-01T11:05:49;14.90;;;5.55;;
55815;SDS011;41744;52.404;16.942;2023-03-01T11:08:25;12.98;;;5.15;;
55815;SDS011;41744;52.404;16.942;2023-03-01T11:11:03;15.40;;;4.57;;
55815;SDS011;41744;52.404;16.942;2023-03-01T11:13:29;10.37;;;4.60;;
55815;SDS011;41744;52.404;16.942;2023-03-01T11:15:59;12.73;;;4.25;;
55815;SDS011;41744;52.404;16.942;2023-03-01T11:18:25;10.77;;;4.80;;
55815;SDS011;41744;52.404;16.942;2023-03-01T11:20:53;10.50;;;5.18;;
55815;SDS011;41744;52.404;16.942;2023-03-01T11:23:21;10.10;;;4.43;;
55815;SDS011;41744;52.404;16.942;2023-03-01T11:25:50;21.07;;;7.17;;
55815;SDS011;41744;52.404;16.942;2023-03-01T11:28:17;10.50;;;4.97;;
55815;SDS011;41744;52.404;16.942;2023-03-01T11:30:50;10.32;;;4.53;;
55815;SDS011;41744;52.404;16.942;2023-03-01T11:36:05;17.98;;;6.22;;
55815;SDS011;41744;52.404;16.942;2023-03-01T11:38:34;9.13;;;5.05;;
55815;SDS011;41744;52.404;16.942;2023-03-01T11:41:20;13.47;;;6.70;;
55815;SDS011;41744;52.404;16.942;2023-03-01T11:43:52;9.93;;;4.03;;
55815;SDS011;41744;52.404;16.942;2023-03-01T11:56:41;24.43;;;6.37;;
55815;SDS011;41744;52.404;16.942;2023-03-01T11:59:16;12.60;;;5.83;;
55815;SDS011;41744;52.404;16.942;2023-03-01T12:09:17;12.80;;;5.53;;
55815;SDS011;41744;52.404;16.942;2023-03-01T12:29:46;24.00;;;8.43;;
55815;SDS011;41744;52.404;16.942;2023-03-01T12:32:21;10.37;;;4.87;;
55815;SDS011;41744;52.404;16.942;2023-03-01T12:45:01;9.85;;;4.88;;
55815;SDS011;41744;52.404;16.942;2023-03-01T12:49:59;14.25;;;5.10;;
55815;SDS011;41744;52.404;16.942;2023-03-01T12:54:59;14.43;;;5.82;;
55815;SDS011;41744;52.404;16.942;2023-03-01T12:57:29;10.75;;;4.97;;
55815;SDS011;41744;52.404;16.942;2023-03-01T13:02:52;10.73;;;4.40;;
55815;SDS011;41744;52.404;16.942;2023-03-01T13:10:29;11.73;;;4.57;;
55815;SDS011;41744;52.404;16.942;2023-03-01T13:15:28;12.50;;;4.78;;
55815;SDS011;41744;52.404;16.942;2023-03-01T13:18:12;14.07;;;5.10;;
55815;SDS011;41744;52.404;16.942;2023-03-01T13:20:54;9.90;;;4.63;;
55815;SDS011;41744;52.404;16.942;2023-03-01T13:23:24;9.70;;;4.50;;
55815;SDS011;41744;52.404;16.942;2023-03-01T13:31:10;13.33;;;4.50;;
55815;SDS011;41744;52.404;16.942;2023-03-01T13:33:53;15.57;;;5.67;;
55815;SDS011;41744;52.404;16.942;2023-03-01T13:46:43;9.73;;;4.57;;
55815;SDS011;41744;52.404;16.942;2023-03-01T13:49:11;13.43;;;5.17;;
55815;SDS011;41744;52.404;16.942;2023-03-01T13:51:40;10.33;;;4.40;;
55815;SDS011;41744;52.404;16.942;2023-03-01T13:54:09;9.90;;;4.50;;
55815;SDS011;41744;52.404;16.942;2023-03-01T13:56:37;12.70;;;5.00;;
55815;SDS011;41744;52.404;16.942;2023-03-01T14:01:38;14.17;;;5.47;;
55815;SDS011;41744;52.404;16.942;2023-03-01T14:04:17;11.30;;;4.37;;
55815;SDS011;41744;52.404;16.942;2023-03-01T14:06:44;10.73;;;5.17;;
55815;SDS011;41744;52.404;16.942;2023-03-01T14:09:14;13.30;;;5.50;;
55815;SDS011;41744;52.404;16.942;2023-03-01T14:19:19;15.80;;;5.30;;
55815;SDS011;41744;52.404;16.942;2023-03-01T14:21:49;10.57;;;4.83;;
55815;SDS011;41744;52.404;16.942;2023-03-01T14:24:25;16.47;;;4.23;;
55815;SDS011;41744;52.404;16.942;2023-03-01T14:26:52;12.17;;;4.73;;
55815;SDS011;41744;52.404;16.942;2023-03-01T14:29:32;11.87;;;4.43;;
55815;SDS011;41744;52.404;16.942;2023-03-01T14:32:10;13.30;;;5.27;;
55815;SDS011;41744;52.404;16.942;2023-03-01T14:34:36;12.87;;;4.80;;
55815;SDS011;41744;52.404;16.942;2023-03-01T14:39:46;11.30;;;4.80;;
55815;SDS011;41744;52.404;16.942;2023-03-01T14:42:12;15.83;;;4.80;;
55815;SDS011;41744;52.404;16.942;2023-03-01T14:44:41;11.10;;;5.10;;
55815;SDS011;41744;52.404;16.942;2023-03-01T14:47:29;10.93;;;4.90;;
55815;SDS011;41744;52.404;16.942;2023-03-01T14:49:59;11.73;;;4.60;;
55815;SDS011;41744;52.404;16.942;2023-03-01T14:52:30;15.67;;;4.57;;
55815;SDS011;41744;52.404;16.942;2023-03-01T14:54:59;12.57;;;5.80;;
55815;SDS011;41744;52.404;16.942;2023-03-01T14:57:26;11.07;;;4.47;;
55815;SDS011;41744;52.404;16.942;2023-03-01T14:59:53;10.07;;;3.83;;
55815;SDS011;41744;52.404;16.942;2023-03-01T15:02:21;10.93;;;4.40;;
55815;SDS011;41744;52.404;16.942;2023-03-01T15:04:49;9.37;;;4.30;;
55815;SDS011;41744;52.404;16.942;2023-03-01T15:07:16;11.47;;;4.40;;
55815;SDS011;41744;52.404;16.942;2023-03-01T15:09:42;12.87;;;4.87;;
55815;SDS011;41744;52.404;16.942;2023-03-01T15:15:32;12.17;;;5.23;;
55815;SDS011;41744;52.404;16.942;2023-03-01T15:18:02;10.57;;;5.20;;
55815;SDS011;41744;52.404;16.942;2023-03-01T15:20:29;14.63;;;5.17;;
55815;SDS011;41744;52.404;16.942;2023-03-01T15:23:00;10.40;;;4.80;;
55815;SDS011;41744;52.404;16.942;2023-03-01T15:25:27;14.47;;;5.47;;
55815;SDS011;41744;52.404;16.942;2023-03-01T15:27:55;12.37;;;4.93;;
55815;SDS011;41744;52.404;16.942;2023-03-01T15:30:40;11.17;;;4.83;;
55815;SDS011;41744;52.404;16.942;2023-03-01T15:33:19;11.80;;;5.40;;
55815;SDS011;41744;52.404;16.942;2023-03-01T15:35:46;12.40;;;5.40;;
55815;SDS011;41744;52.404;16.942;2023-03-01T15:40:51;10.83;;;4.47;;
55815;SDS011;41744;52.404;16.942;2023-03-01T15:48:51;10.53;;;5.03;;
55815;SDS011;41744;52.404;16.942;2023-03-01T15:51:19;11.60;;;4.53;;
55815;SDS011;41744;52.404;16.942;2023-03-01T15:53:49;10.57;;;4.63;;
55815;SDS011;41744;52.404;16.942;2023-03-01T15:56:15;10.53;;;4.60;;
55815;SDS011;41744;52.404;16.942;2023-03-01T15:58:42;14.37;;;4.60;;
55815;SDS011;41744;52.404;16.942;2023-03-01T16:01:12;11.13;;;4.53;;
55815;SDS011;41744;52.404;16.942;2023-03-01T16:03:38;16.23;;;5.50;;
55815;SDS011;41744;52.404;16.942;2023-03-01T16:06:05;13.33;;;5.80;;
55815;SDS011;41744;52.404;16.942;2023-03-01T16:08:31;18.30;;;8.03;;
55815;SDS011;41744;52.404;16.942;2023-03-01T16:10:57;29.20;;;11.17;;
55815;SDS011;41744;52.404;16.942;2023-03-01T16:13:23;23.17;;;11.00;;
55815;SDS011;41744;52.404;16.942;2023-03-01T16:15:50;19.50;;;7.93;;
55815;SDS011;41744;52.404;16.942;2023-03-01T16:18:16;15.53;;;6.83;;
55815;SDS011;41744;52.404;16.942;2023-03-01T16:20:42;15.87;;;6.20;;
55815;SDS011;41744;52.404;16.942;2023-03-01T16:23:09;18.27;;;6.30;;
55815;SDS011;41744;52.404;16.942;2023-03-01T16:25:36;14.97;;;6.20;;
55815;SDS011;41744;52.404;16.942;2023-03-01T16:28:03;12.63;;;6.17;;
55815;SDS011;41744;52.404;16.942;2023-03-01T16:30:33;14.67;;;6.20;;
55815;SDS011;41744;52.404;16.942;2023-03-01T16:33:00;25.20;;;6.90;;